createdAt,value
2023-08-17T00:02:20.804Z,101641.47
2023-08-17T00:04:47.807Z,101636.72
2023-08-17T00:07:14.732Z,101640.59
2023-08-17T00:09:41.654Z,101633.31
2023-08-17T00:12:08.602Z,101632.25
2023-08-17T00:14:35.571Z,101635.03
2023-08-17T00:17:04.058Z,101633.94
2023-08-17T00:19:31.028Z,101630.31
2023-08-17T00:21:58.009Z,101633.09
2023-08-17T00:24:25.025Z,101619.41
2023-08-17T00:26:52.105Z,101629.47
2023-08-17T00:29:18.973Z,101628.38
2023-08-17T00:31:45.939Z,101623.06
2023-08-17T00:34:13.791Z,101624.75
2023-08-17T00:36:40.710Z,101618.34
2023-08-17T00:39:07.786Z,101613.84
2023-08-17T00:41:34.779Z,101621.13
2023-08-17T00:44:02.306Z,101620.50
2023-08-17T00:46:31.467Z,101627.75
2023-08-17T00:48:59.466Z,101613.19
2023-08-17T00:51:28.598Z,101624.97
2023-08-17T00:54:00.052Z,101623.06
2023-08-17T00:56:30.880Z,101627.31
2023-08-17T00:58:58.298Z,101613.84
2023-08-17T01:01:25.454Z,101621.34
2023-08-17T01:03:52.815Z,101614.91
2023-08-17T01:06:20.428Z,101620.50
2023-08-17T01:08:48.470Z,101616.63
2023-08-17T01:11:27.449Z,101623.50
2023-08-17T01:14:00.942Z,101630.31
2023-08-17T01:16:56.518Z,101628.38
2023-08-17T01:19:29.135Z,101633.31
2023-08-17T01:22:04.317Z,101629.47
2023-08-17T01:24:31.228Z,101620.50
2023-08-17T01:26:58.126Z,101625.41
2023-08-17T01:29:25.364Z,101621.75
2023-08-17T01:32:25.352Z,101622.63
2023-08-17T01:35:09.524Z,101614.06
2023-08-17T01:37:41.666Z,101612.13
2023-08-17T01:40:10.561Z,101611.50
2023-08-17T01:42:40.097Z,101609.78
2023-08-17T01:45:07.877Z,101602.47
2023-08-17T01:47:36.713Z,101606.16
2023-08-17T01:50:03.903Z,101607.19
2023-08-17T01:52:31.114Z,101619.19
2023-08-17T01:54:58.035Z,101617.47
2023-08-17T01:57:25.159Z,101615.75
2023-08-17T01:59:53.245Z,101622.19
2023-08-17T02:02:20.181Z,101615.75
2023-08-17T02:04:47.133Z,101614.06
2023-08-17T02:07:14.101Z,101612.97
2023-08-17T02:09:40.989Z,101608.50
2023-08-17T02:12:09.311Z,101617.91
2023-08-17T02:14:36.249Z,101609.56
2023-08-17T02:17:03.185Z,101609.56
2023-08-17T02:19:30.102Z,101614.06
2023-08-17T02:21:56.977Z,101616.22
2023-08-17T02:24:23.958Z,101608.06
2023-08-17T02:26:54.049Z,101616.22
2023-08-17T02:29:21.125Z,101610.63
2023-08-17T02:31:47.994Z,101611.69
2023-08-17T02:34:14.875Z,101608.06
2023-08-17T02:36:41.726Z,101602.72
2023-08-17T02:39:08.659Z,101607.22
2023-08-17T02:41:35.758Z,101597.78
2023-08-17T02:44:03.380Z,101599.94
2023-08-17T02:46:30.366Z,101600.78
2023-08-17T02:48:57.349Z,101593.72
2023-08-17T02:51:24.762Z,101598.19
2023-08-17T02:53:51.843Z,101600.97
2023-08-17T02:56:18.764Z,101599.28
2023-08-17T02:58:45.760Z,101591.16
2023-08-17T03:01:12.769Z,101591.34
2023-08-17T03:03:39.873Z,101597.56
2023-08-17T03:06:07.919Z,101594.78
2023-08-17T03:08:34.859Z,101593.09
2023-08-17T03:11:01.832Z,101591.34
2023-08-17T03:13:28.919Z,101594.13
2023-08-17T03:15:56.051Z,101589.03
2023-08-17T03:18:23.137Z,101591.56
2023-08-17T03:20:50.108Z,101599.06
2023-08-17T03:23:17.124Z,101587.94
2023-08-17T03:25:44.526Z,101599.06
2023-08-17T03:28:11.603Z,101594.59
2023-08-17T03:30:38.580Z,101591.81
2023-08-17T03:33:05.993Z,101595.66
2023-08-17T03:35:33.239Z,101602.94
2023-08-17T03:38:00.178Z,101591.81
2023-08-17T03:40:27.716Z,101590.09
2023-08-17T03:42:54.606Z,101593.91
2023-08-17T03:45:21.673Z,101594.81
2023-08-17T03:47:51.072Z,101595.66
2023-08-17T03:50:18.126Z,101587.50
2023-08-17T03:52:44.999Z,101583.66
2023-08-17T03:55:12.014Z,101583.88
2023-08-17T03:57:39.752Z,101582.16
2023-08-17T04:00:08.622Z,101586.88
2023-08-17T04:02:40.667Z,101585.81
2023-08-17T04:05:10.699Z,101583.25
2023-08-17T04:07:38.085Z,101588.81
2023-08-17T04:10:07.192Z,101583.25
2023-08-17T04:12:34.085Z,101586.22
2023-08-17T04:15:01.343Z,101587.06
2023-08-17T04:17:28.632Z,101584.50
2023-08-17T04:19:55.938Z,101595.63
2023-08-17T04:22:23.016Z,101606.75
2023-08-17T04:24:49.995Z,101599.50
2023-08-17T04:27:18.076Z,101606.97
2023-08-17T04:29:45.411Z,101609.75
2023-08-17T04:32:17.513Z,101603.78
2023-08-17T04:34:46.914Z,101620.88
2023-08-17T04:37:16.643Z,101617.44
2023-08-17T04:39:44.547Z,101617.44
2023-08-17T04:42:17.528Z,101609.97
2023-08-17T04:44:45.163Z,101611.88
2023-08-17T04:47:12.201Z,101615.75
2023-08-17T04:49:39.288Z,101617.44
2023-08-17T04:52:06.524Z,101614.03
2023-08-17T04:54:35.077Z,101618.53
2023-08-17T04:57:01.949Z,101620.69
2023-08-17T04:59:28.814Z,101604.00
2023-08-17T05:01:55.738Z,101614.03
2023-08-17T05:04:23.026Z,101615.13
2023-08-17T05:06:50.032Z,101607.81
2023-08-17T05:09:17.030Z,101616.59
2023-08-17T05:11:43.976Z,101612.06
2023-08-17T05:14:11.995Z,101607.56
2023-08-17T05:16:39.264Z,101606.28
2023-08-17T05:19:06.296Z,101609.66
2023-08-17T05:21:33.555Z,101610.31
2023-08-17T05:24:00.481Z,101610.94
2023-08-17T05:26:27.413Z,101606.66
2023-08-17T05:28:54.330Z,101602.34
2023-08-17T05:31:21.291Z,101598.94
2023-08-17T05:33:49.961Z,101596.34
2023-08-17T05:36:17.748Z,101605.78
2023-08-17T05:38:44.661Z,101595.72
2023-08-17T05:41:11.561Z,101601.28
2023-08-17T05:43:38.659Z,101598.50
2023-08-17T05:46:05.772Z,101592.94
2023-08-17T05:48:33.728Z,101602.34
2023-08-17T05:51:00.727Z,101603.41
2023-08-17T05:53:27.643Z,101609.59
2023-08-17T05:55:54.594Z,101611.75
2023-08-17T05:58:21.519Z,101611.75
2023-08-17T06:00:48.440Z,101610.03
2023-08-17T06:03:15.450Z,101609.59
2023-08-17T06:05:42.539Z,101611.97
2023-08-17T06:08:09.486Z,101616.50
2023-08-17T06:10:36.470Z,101622.69
2023-08-17T06:13:03.449Z,101621.59
2023-08-17T06:15:30.428Z,101627.16
2023-08-17T06:17:58.018Z,101634.00
2023-08-17T06:20:24.936Z,101637.69
2023-08-17T06:22:51.832Z,101635.75
2023-08-17T06:25:18.953Z,101636.38
2023-08-17T06:27:46.258Z,101639.16
2023-08-17T06:30:13.822Z,101639.16
2023-08-17T06:32:40.891Z,101638.31
2023-08-17T06:35:08.816Z,101624.63
2023-08-17T06:37:36.775Z,101632.31
2023-08-17T06:40:06.482Z,101623.34
2023-08-17T06:42:33.591Z,101634.84
2023-08-17T06:45:00.553Z,101625.47
2023-08-17T06:47:27.830Z,101624.81
2023-08-17T06:49:56.547Z,101619.25
2023-08-17T06:52:23.553Z,101630.16
2023-08-17T06:54:50.500Z,101625.47
2023-08-17T06:57:17.690Z,101636.16
2023-08-17T06:59:47.142Z,101624.81
2023-08-17T07:02:14.129Z,101631.47
2023-08-17T07:04:42.071Z,101641.13
2023-08-17T07:07:09.469Z,101638.75
2023-08-17T07:09:36.452Z,101639.44
2023-08-17T07:12:03.687Z,101649.91
2023-08-17T07:14:30.736Z,101647.78
2023-08-17T07:16:57.696Z,101643.94
2023-08-17T07:19:35.722Z,101640.06
2023-08-17T07:22:11.940Z,101639.28
2023-08-17T07:24:39.292Z,101636.72
2023-08-17T07:27:06.219Z,101636.28
2023-08-17T07:29:33.774Z,101639.91
2023-08-17T07:32:03.055Z,101646.13
2023-08-17T07:34:32.195Z,101643.34
2023-08-17T07:36:59.499Z,101645.06
2023-08-17T07:39:27.210Z,101641.84
2023-08-17T07:41:54.970Z,101640.16
2023-08-17T07:44:22.052Z,101642.94
2023-08-17T07:46:49.012Z,101643.56
2023-08-17T07:49:22.797Z,101644.41
2023-08-17T07:51:57.568Z,101632.00
2023-08-17T07:54:24.538Z,101637.56
2023-08-17T07:56:51.559Z,101632.00
2023-08-17T07:59:18.521Z,101640.13
2023-08-17T08:01:45.423Z,101646.59
2023-08-17T08:04:12.432Z,101641.03
2023-08-17T08:06:39.359Z,101642.72
2023-08-17T08:09:06.344Z,101642.72
2023-08-17T08:11:33.309Z,101650.00
2023-08-17T08:14:00.416Z,101646.59
2023-08-17T08:16:30.637Z,101654.47
2023-08-17T08:18:58.652Z,101657.25
2023-08-17T08:21:25.598Z,101647.88
2023-08-17T08:23:52.527Z,101658.16
2023-08-17T08:26:19.656Z,101647.03
2023-08-17T08:28:46.837Z,101656.41
2023-08-17T08:31:13.838Z,101651.69
2023-08-17T08:33:40.730Z,101658.16
2023-08-17T08:36:07.674Z,101667.13
2023-08-17T08:38:34.590Z,101657.91
2023-08-17T08:41:03.247Z,101662.41
2023-08-17T08:43:31.018Z,101656.84
2023-08-17T08:46:01.068Z,101662.84
2023-08-17T08:48:28.524Z,101667.34
2023-08-17T08:50:57.700Z,101662.84
2023-08-17T08:53:37.965Z,101658.13
2023-08-17T08:56:08.334Z,101657.91
2023-08-17T08:58:37.429Z,101648.72
2023-08-17T09:01:09.059Z,101649.81
2023-08-17T09:03:37.876Z,101648.28
2023-08-17T09:06:05.504Z,101650.00
2023-08-17T09:08:32.701Z,101650.00
2023-08-17T09:10:59.738Z,101650.00
2023-08-17T09:13:26.804Z,101647.22
2023-08-17T09:15:53.934Z,101629.44
2023-08-17T09:18:21.292Z,101637.16
2023-08-17T09:20:49.372Z,101645.28
2023-08-17T09:23:20.981Z,101640.56
2023-08-17T09:25:50.457Z,101634.16
2023-08-17T09:28:20.152Z,101627.75
2023-08-17T09:30:51.361Z,101635.44
2023-08-17T09:33:24.172Z,101638.88
2023-08-17T09:38:26.287Z,101633.31
2023-08-17T09:40:54.072Z,101627.75
2023-08-17T09:43:25.687Z,101620.47
2023-08-17T09:45:55.552Z,101621.31
2023-08-17T09:48:22.607Z,101616.63
2023-08-17T09:50:49.750Z,101624.09
2023-08-17T09:53:19.746Z,101618.75
2023-08-17T09:55:47.600Z,101620.25
2023-08-17T09:58:16.400Z,101612.75
2023-08-17T10:00:52.239Z,101613.63
2023-08-17T10:03:21.099Z,101622.81
2023-08-17T10:06:06.369Z,101626.03
2023-08-17T10:08:41.003Z,101619.84
2023-08-17T10:11:10.825Z,101621.75
2023-08-17T10:13:52.940Z,101618.75
2023-08-17T10:16:36.397Z,101607.63
2023-08-17T10:19:41.578Z,101607.63
2023-08-17T10:22:39.494Z,101610.84
2023-08-17T10:25:09.745Z,101595.66
2023-08-17T10:27:37.284Z,101597.38
2023-08-17T10:30:09.298Z,101594.81
2023-08-17T10:32:37.120Z,101590.09
2023-08-17T10:35:07.027Z,101598.22
2023-08-17T10:37:34.850Z,101595.66
2023-08-17T10:40:01.827Z,101599.06
2023-08-17T10:42:35.042Z,101589.22
2023-08-17T10:45:23.488Z,101597.38
2023-08-17T10:47:50.479Z,101603.34
2023-08-17T10:50:27.370Z,101590.06
2023-08-17T10:52:55.304Z,101593.09
2023-08-17T10:55:42.266Z,101602.94
2023-08-17T10:58:15.121Z,101600.78
2023-08-17T11:00:45.045Z,101600.34
2023-08-17T11:03:29.738Z,101595.00
2023-08-17T11:05:59.254Z,101592.22
2023-08-17T11:08:32.667Z,101597.16
2023-08-17T11:11:07.854Z,101596.94
2023-08-17T11:13:38.901Z,101602.50
2023-08-17T11:16:08.284Z,101600.34
2023-08-17T11:18:36.123Z,101600.34
2023-08-17T11:21:07.877Z,101602.50
2023-08-17T11:23:38.272Z,101599.28
2023-08-17T11:26:05.714Z,101602.28
2023-08-17T11:28:42.741Z,101608.47
2023-08-17T11:31:13.264Z,101601.22
2023-08-17T11:33:41.116Z,101607.63
2023-08-17T11:36:10.938Z,101601.44
2023-08-17T11:38:43.650Z,101603.34
2023-08-17T11:41:18.368Z,101596.50
2023-08-17T11:43:47.563Z,101603.13
2023-08-17T11:46:14.983Z,101600.13
2023-08-17T11:48:42.400Z,101598.19
2023-08-17T11:51:09.619Z,101596.50
2023-08-17T11:53:41.240Z,101597.78
2023-08-17T11:56:10.512Z,101599.09
2023-08-17T11:58:45.583Z,101599.50
2023-08-17T12:01:14.277Z,101599.94
2023-08-17T12:03:43.036Z,101602.91
2023-08-17T12:06:11.670Z,101597.34
2023-08-17T12:08:38.662Z,101600.97
2023-08-17T12:11:05.908Z,101598.19
2023-08-17T12:13:36.409Z,101599.50
2023-08-17T12:16:04.475Z,101592.00
2023-08-17T12:18:36.105Z,101598.63
2023-08-17T12:21:05.005Z,101590.72
2023-08-17T12:23:34.092Z,101594.38
2023-08-17T12:26:01.129Z,101598.00
2023-08-17T12:28:28.027Z,101592.63
2023-08-17T12:31:03.726Z,101595.22
2023-08-17T12:33:30.951Z,101589.84
2023-08-17T12:35:58.280Z,101603.75
2023-08-17T12:38:26.779Z,101602.06
2023-08-17T12:40:54.689Z,101596.50
2023-08-17T12:43:22.114Z,101593.09
2023-08-17T12:45:49.045Z,101596.50
2023-08-17T12:48:16.040Z,101585.78
2023-08-17T12:50:44.716Z,101594.78
2023-08-17T12:53:12.402Z,101608.69
2023-08-17T12:55:39.563Z,101603.56
2023-08-17T12:58:10.063Z,101604.22
2023-08-17T13:00:37.529Z,101599.28
2023-08-17T13:03:05.203Z,101595.66
2023-08-17T13:05:32.569Z,101595.84
2023-08-17T13:07:59.594Z,101593.91
2023-08-17T13:10:26.543Z,101599.47
2023-08-17T13:12:57.714Z,101596.94
2023-08-17T13:15:24.736Z,101593.28
2023-08-17T13:17:51.902Z,101585.16
2023-08-17T13:20:19.023Z,101581.50
2023-08-17T13:22:45.920Z,101581.72
2023-08-17T13:25:12.777Z,101585.38
2023-08-17T13:27:39.726Z,101581.50
2023-08-17T13:30:07.749Z,101582.78
2023-08-17T13:32:34.740Z,101583.22
2023-08-17T13:35:03.928Z,101575.09
2023-08-17T13:37:30.922Z,101578.53
2023-08-17T13:39:59.321Z,101582.78
2023-08-17T13:42:26.520Z,101576.81
2023-08-17T13:44:53.686Z,101574.66
2023-08-17T13:47:20.773Z,101571.69
2023-08-17T13:49:47.740Z,101586.44
2023-08-17T13:52:14.696Z,101575.94
2023-08-17T13:54:41.674Z,101578.53
2023-08-17T13:57:09.917Z,101582.16
2023-08-17T13:59:36.863Z,101577.22
2023-08-17T14:02:04.352Z,101583.66
2023-08-17T14:04:31.354Z,101569.75
2023-08-17T14:06:58.219Z,101571.25
2023-08-17T14:09:25.196Z,101560.13
2023-08-17T14:11:52.114Z,101564.38
2023-08-17T14:14:19.075Z,101560.13
2023-08-17T14:16:45.971Z,101561.84
2023-08-17T14:19:12.887Z,101566.53
2023-08-17T14:21:39.963Z,101562.47
2023-08-17T14:24:09.188Z,101555.81
2023-08-17T14:26:36.385Z,101550.25
2023-08-17T14:29:03.631Z,101550.25
2023-08-17T14:31:30.520Z,101554.78
2023-08-17T14:33:57.484Z,101555.81
2023-08-17T14:36:24.581Z,101555.81
2023-08-17T14:38:51.512Z,101555.81
2023-08-17T14:41:18.543Z,101552.41
2023-08-17T14:43:45.607Z,101551.13
2023-08-17T14:46:15.649Z,101548.13
2023-08-17T14:48:42.964Z,101546.41
2023-08-17T14:51:09.986Z,101552.00
2023-08-17T14:53:40.141Z,101548.13
2023-08-17T14:56:07.615Z,101548.13
2023-08-17T14:58:34.664Z,101552.84
2023-08-17T15:01:02.049Z,101552.00
2023-08-17T15:03:29.260Z,101548.13
2023-08-17T15:05:56.492Z,101536.13
2023-08-17T15:08:23.380Z,101534.19
2023-08-17T15:10:50.574Z,101520.75
2023-08-17T15:13:19.227Z,101528.00
2023-08-17T15:15:46.504Z,101516.88
2023-08-17T15:18:13.625Z,101518.59
2023-08-17T15:20:40.604Z,101510.25
2023-08-17T15:23:07.523Z,101513.03
2023-08-17T15:25:35.260Z,101511.31
2023-08-17T15:28:02.208Z,101512.19
2023-08-17T15:30:30.370Z,101510.25
2023-08-17T15:32:57.545Z,101514.72
2023-08-17T15:35:24.651Z,101509.16
2023-08-17T15:37:51.565Z,101502.75
2023-08-17T15:40:18.654Z,101503.59
2023-08-17T15:42:45.622Z,101487.78
2023-08-17T15:45:12.581Z,101498.03
2023-08-17T15:47:39.490Z,101498.03
2023-08-17T15:50:06.935Z,101494.41
2023-08-17T15:52:33.855Z,101498.03
2023-08-17T15:55:00.968Z,101500.81
2023-08-17T15:57:28.143Z,101508.09
2023-08-17T15:59:55.353Z,101498.91
2023-08-17T16:02:22.290Z,101498.03
2023-08-17T16:04:49.233Z,101494.63
2023-08-17T16:07:16.080Z,101496.34
2023-08-17T16:09:42.979Z,101496.97
2023-08-17T16:12:11.151Z,101490.78
2023-08-17T16:14:38.156Z,101498.03
2023-08-17T16:17:05.315Z,101492.47
2023-08-17T16:19:32.185Z,101494.19
2023-08-17T16:21:59.186Z,101493.34
2023-08-17T16:24:26.878Z,101490.56
2023-08-17T16:26:55.454Z,101488.63
2023-08-17T16:29:22.444Z,101478.56
2023-08-17T16:32:08.438Z,101476.19
2023-08-17T16:34:36.846Z,101476.44
2023-08-17T16:37:03.876Z,101473.88
2023-08-17T16:39:30.775Z,101472.78
2023-08-17T16:41:58.538Z,101468.31
2023-08-17T16:44:27.680Z,101467.44
2023-08-17T16:46:55.383Z,101456.97
2023-08-17T16:49:22.444Z,101463.81
2023-08-17T16:51:49.328Z,101456.53
2023-08-17T16:54:19.040Z,101453.13
2023-08-17T16:56:46.038Z,101453.13
2023-08-17T16:59:12.920Z,101451.41
2023-08-17T17:01:40.073Z,101455.91
2023-08-17T17:04:07.599Z,101450.75
2023-08-17T17:06:34.524Z,101456.97
2023-08-17T17:09:01.499Z,101444.13
2023-08-17T17:11:28.545Z,101449.72
2023-08-17T17:13:58.312Z,101452.50
2023-08-17T17:16:25.946Z,101450.56
2023-08-17T17:18:53.067Z,101451.41
2023-08-17T17:21:20.082Z,101451.41
2023-08-17T17:23:47.031Z,101445.84
2023-08-17T17:26:14.361Z,101444.13
2023-08-17T17:28:41.385Z,101447.56
2023-08-17T17:31:08.482Z,101456.13
2023-08-17T17:33:35.526Z,101451.41
2023-08-17T17:36:02.479Z,101446.28
2023-08-17T17:38:29.479Z,101440.72
2023-08-17T17:41:01.209Z,101437.94
2023-08-17T17:43:28.312Z,101447.13
2023-08-17T17:45:55.239Z,101438.16
2023-08-17T17:48:22.190Z,101434.50
2023-08-17T17:50:49.140Z,101434.50
2023-08-17T17:53:16.040Z,101437.28
2023-08-17T17:55:42.984Z,101432.59
2023-08-17T17:58:09.925Z,101429.19
2023-08-17T18:00:36.920Z,101439.44
2023-08-17T18:03:14.499Z,101444.13
2023-08-17T18:05:42.811Z,101449.00
2023-08-17T18:08:10.294Z,101447.97
2023-08-17T18:10:42.207Z,101443.94
2023-08-17T18:13:09.660Z,101449.69
2023-08-17T18:15:39.297Z,101454.41
2023-08-17T18:18:07.305Z,101455.72
2023-08-17T18:20:34.659Z,101455.72
2023-08-17T18:23:02.229Z,101461.50
2023-08-17T18:25:30.899Z,101456.97
2023-08-17T18:27:57.802Z,101464.66
2023-08-17T18:30:24.879Z,101469.16
2023-08-17T18:32:51.802Z,101470.00
2023-08-17T18:35:21.570Z,101469.38
2023-08-17T18:37:49.134Z,101475.56
2023-08-17T18:40:16.277Z,101467.00
2023-08-17T18:42:43.245Z,101468.72
2023-08-17T18:45:10.714Z,101476.22
2023-08-17T18:47:37.680Z,101471.50
2023-08-17T18:50:05.311Z,101482.00
2023-08-17T18:52:32.266Z,101479.22
2023-08-17T18:55:04.834Z,101486.91
2023-08-17T18:57:34.625Z,101484.78
2023-08-17T19:00:04.406Z,101490.34
2023-08-17T19:02:31.376Z,101485.19
2023-08-17T19:05:01.027Z,101498.47
2023-08-17T19:07:29.286Z,101498.47
2023-08-17T19:09:56.652Z,101495.03
2023-08-17T19:12:23.559Z,101498.88
2023-08-17T19:14:50.520Z,101497.19
2023-08-17T19:17:18.382Z,101486.06
2023-08-17T19:19:46.361Z,101491.63
2023-08-17T19:22:13.434Z,101495.47
2023-08-17T19:24:40.453Z,101487.31
2023-08-17T19:27:07.582Z,101490.31
2023-08-17T19:29:34.696Z,101489.47
2023-08-17T19:32:01.625Z,101488.63
2023-08-17T19:34:28.653Z,101492.47
2023-08-17T19:36:55.953Z,101493.78
2023-08-17T19:39:22.907Z,101486.28
2023-08-17T19:41:50.114Z,101489.47
2023-08-17T19:44:17.278Z,101483.47
2023-08-17T19:46:44.382Z,101479.63
2023-08-17T19:49:11.385Z,101488.63
2023-08-17T19:51:40.540Z,101481.78
2023-08-17T19:54:07.816Z,101478.78
2023-08-17T19:56:34.713Z,101483.06
2023-08-17T19:59:02.547Z,101489.47
2023-08-17T20:01:29.995Z,101491.22
2023-08-17T20:03:57.104Z,101487.38
2023-08-17T20:06:24.174Z,101487.38
2023-08-17T20:08:51.199Z,101488.22
2023-08-17T20:11:18.371Z,101490.78
2023-08-17T20:13:45.439Z,101489.94
2023-08-17T20:16:12.670Z,101498.28
2023-08-17T20:18:40.043Z,101489.94
2023-08-17T20:21:07.495Z,101496.97
2023-08-17T20:23:34.591Z,101503.63
2023-08-17T20:26:02.248Z,101510.88
2023-08-17T20:28:29.203Z,101512.63
2023-08-17T20:31:00.039Z,101516.25
2023-08-17T20:33:27.825Z,101514.34
2023-08-17T20:35:56.070Z,101502.53
2023-08-17T20:38:24.560Z,101506.22
2023-08-17T20:40:52.629Z,101506.22
2023-08-17T20:43:20.380Z,101507.06
2023-08-17T20:45:47.319Z,101512.63
2023-08-17T20:48:14.427Z,101509.84
2023-08-17T20:50:45.176Z,101512.63
2023-08-17T20:53:12.495Z,101516.44
2023-08-17T20:55:41.778Z,101514.56
2023-08-17T20:58:09.510Z,101515.59
2023-08-17T21:00:36.970Z,101519.25
2023-08-17T21:03:05.449Z,101509.19
2023-08-17T21:05:33.084Z,101505.31
2023-08-17T21:08:00.313Z,101501.91
2023-08-17T21:10:27.613Z,101501.69
2023-08-17T21:12:54.521Z,101501.91
2023-08-17T21:15:21.482Z,101501.50
2023-08-17T21:17:48.479Z,101504.47
2023-08-17T21:20:15.800Z,101507.25
2023-08-17T21:22:50.756Z,101496.97
2023-08-17T21:25:21.034Z,101499.34
2023-08-17T21:27:48.177Z,101491.41
2023-08-17T21:30:16.780Z,101494.19
2023-08-17T21:32:43.896Z,101485.84
2023-08-17T21:35:12.664Z,101490.38
2023-08-17T21:37:41.562Z,101485.00
2023-08-17T21:40:09.360Z,101486.94
2023-08-17T21:42:36.281Z,101481.38
2023-08-17T21:45:03.727Z,101473.88
2023-08-17T21:47:31.133Z,101477.50
2023-08-17T21:49:58.314Z,101468.53
2023-08-17T21:52:25.219Z,101469.16
2023-08-17T21:54:52.420Z,101475.81
2023-08-17T21:57:19.400Z,101475.81
2023-08-17T21:59:46.725Z,101472.19
2023-08-17T22:02:13.667Z,101483.06
2023-08-17T22:04:40.543Z,101477.97
2023-08-17T22:07:07.455Z,101480.53
2023-08-17T22:09:34.761Z,101483.53
2023-08-17T22:12:02.595Z,101483.53
2023-08-17T22:14:32.762Z,101479.66
2023-08-17T22:16:59.681Z,101470.69
2023-08-17T22:19:27.012Z,101479.66
2023-08-17T22:21:56.849Z,101479.66
2023-08-17T22:24:26.144Z,101479.66
2023-08-17T22:26:54.522Z,101479.66
2023-08-17T22:29:21.387Z,101483.53
2023-08-17T22:31:48.847Z,101477.09
2023-08-17T22:34:15.727Z,101475.56
2023-08-17T22:36:42.614Z,101481.13
2023-08-17T22:39:09.467Z,101475.78
2023-08-17T22:41:38.525Z,101476.63
2023-08-17T22:44:05.810Z,101483.91
2023-08-17T22:46:32.856Z,101480.50
2023-08-17T22:48:59.721Z,101478.34
2023-08-17T22:51:26.661Z,101464.03
2023-08-17T22:53:53.665Z,101468.53
2023-08-17T22:56:20.585Z,101458.25
2023-08-17T22:58:47.475Z,101467.66
2023-08-17T23:01:14.436Z,101458.66
2023-08-17T23:03:41.472Z,101461.25
2023-08-17T23:06:08.521Z,101454.84
2023-08-17T23:08:36.797Z,101449.28
2023-08-17T23:11:03.898Z,101454.84
2023-08-17T23:13:31.117Z,101444.97
2023-08-17T23:15:57.975Z,101451.41
2023-08-17T23:18:25.138Z,101451.41
2023-08-17T23:20:52.018Z,101462.53
2023-08-17T23:23:19.214Z,101451.84
2023-08-17T23:25:46.201Z,101459.97
2023-08-17T23:28:14.211Z,101457.41
2023-08-17T23:30:41.594Z,101459.13
2023-08-17T23:33:10.293Z,101453.56
2023-08-17T23:35:41.752Z,101455.66
2023-08-17T23:38:10.658Z,101450.78
2023-08-17T23:40:37.612Z,101446.28
2023-08-17T23:43:04.725Z,101444.53
2023-08-17T23:45:31.644Z,101443.69
2023-08-17T23:47:58.853Z,101431.72
2023-08-17T23:50:25.771Z,101430.00
2023-08-17T23:52:52.817Z,101428.94
2023-08-17T23:55:19.756Z,101431.72
2023-08-17T23:57:46.741Z,101429.78
